Terminal Aerodrome Forecast
Issued by NWS Greer, SC

Current Version | Previous Version | Text Only | Print | Product List | Glossary On
Versions: 1 2 3 4 5 6 7 8 9 10 11 12 13 14 15 16 17 18 19 20 21 22 23 24 25 26 27 28 29 30 31 32 33 34 35 36 37
000
FTUS42 KGSP 202334
TAFAVL
TAF
KAVL 202334Z 2100/2124 17006KT 6SM BR OVC014
     FM210800 00000KT 3SM BR OVC017
     FM211400 14003KT P6SM OVC050
     FM212000 14004KT P6SM BKN015 OVC030=

USA.gov is the U.S. government's official web portal to all federal, state and local government web resources and services.